createdAt,value
2022-12-19T00:01:34.829Z,9.98
2022-12-19T00:04:08.104Z,10.52
2022-12-19T00:06:37.403Z,10.30
2022-12-19T00:09:05.366Z,9.30
2022-12-19T00:11:32.755Z,11.07
2022-12-19T00:13:59.856Z,10.15
2022-12-19T00:16:28.756Z,9.90
2022-12-19T00:18:58.495Z,10.60
2022-12-19T00:21:28.132Z,10.95
2022-12-19T00:23:55.311Z,10.43
2022-12-19T00:26:23.692Z,8.57
2022-12-19T00:29:14.296Z,12.40
2022-12-19T00:31:41.413Z,11.65
2022-12-19T00:34:09.301Z,10.43
2022-12-19T00:36:35.957Z,10.20
2022-12-19T00:39:08.131Z,11.15
2022-12-19T00:41:40.084Z,11.20
2022-12-19T00:44:14.228Z,10.48
2022-12-19T00:46:41.155Z,11.02
2022-12-19T00:49:08.088Z,12.55
2022-12-19T00:51:37.089Z,10.95
2022-12-19T00:54:05.331Z,11.57
2022-12-19T00:56:37.732Z,11.98
2022-12-19T00:59:07.126Z,11.40
2022-12-19T01:01:38.159Z,11.77
2022-12-19T01:06:53.997Z,12.43
2022-12-19T01:09:24.786Z,12.25
2022-12-19T01:12:10.404Z,12.10
2022-12-19T01:14:37.061Z,12.75
2022-12-19T01:17:03.837Z,13.02
2022-12-19T01:19:30.512Z,11.77
2022-12-19T01:21:57.155Z,12.55
2022-12-19T01:24:24.619Z,13.40
2022-12-19T01:26:51.312Z,11.90
2022-12-19T01:29:17.967Z,11.57
2022-12-19T01:31:44.694Z,13.20
2022-12-19T01:34:11.658Z,11.35
2022-12-19T01:36:40.167Z,11.30
2022-12-19T01:39:07.780Z,12.20
2022-12-19T01:41:35.416Z,12.88
2022-12-19T01:44:07.277Z,11.95
2022-12-19T01:46:47.775Z,13.23
2022-12-19T01:49:29.118Z,11.88
2022-12-19T01:51:58.801Z,11.50
2022-12-19T01:54:39.943Z,13.85
2022-12-19T01:57:13.707Z,12.00
2022-12-19T01:59:45.989Z,13.23
2022-12-19T02:02:48.728Z,12.50
2022-12-19T02:05:16.184Z,13.35
2022-12-19T02:07:44.149Z,14.40
2022-12-19T02:10:11.417Z,13.23
2022-12-19T02:12:41.601Z,14.32
2022-12-19T02:15:10.871Z,13.30
2022-12-19T02:17:52.617Z,14.32
2022-12-19T02:20:39.423Z,13.40
2022-12-19T02:23:18.397Z,13.50
2022-12-19T02:26:29.459Z,13.52
2022-12-19T02:28:56.279Z,13.70
2022-12-19T02:31:31.788Z,14.43
2022-12-19T02:34:41.400Z,13.68
2022-12-19T02:37:18.191Z,13.90
2022-12-19T02:40:01.925Z,13.90
2022-12-19T02:42:32.229Z,14.23
2022-12-19T02:45:05.940Z,14.05
2022-12-19T02:47:34.260Z,14.18
2022-12-19T02:50:03.014Z,13.45
2022-12-19T02:52:30.325Z,14.20
2022-12-19T02:55:06.524Z,14.35
2022-12-19T02:57:59.272Z,14.95
2022-12-19T03:00:28.567Z,14.70
2022-12-19T03:03:16.708Z,11.95
2022-12-19T03:05:55.840Z,13.90
2022-12-19T03:08:35.300Z,15.30
2022-12-19T03:11:13.335Z,13.40
2022-12-19T03:14:02.221Z,14.90
2022-12-19T03:16:29.210Z,15.15
2022-12-19T03:18:57.451Z,13.52
2022-12-19T03:21:31.460Z,15.05
2022-12-19T03:23:59.205Z,14.00
2022-12-19T03:26:30.160Z,14.82
2022-12-19T03:29:05.363Z,13.18
2022-12-19T03:31:33.940Z,15.48
2022-12-19T03:34:13.830Z,13.85
2022-12-19T03:36:45.376Z,15.18
2022-12-19T03:39:14.413Z,13.53
2022-12-19T03:42:03.111Z,13.85
2022-12-19T03:44:34.461Z,13.95
2022-12-19T03:47:13.019Z,13.18
2022-12-19T03:49:40.303Z,15.13
2022-12-19T03:52:20.886Z,15.40
2022-12-19T03:55:00.775Z,14.80
2022-12-19T03:57:39.802Z,15.20
2022-12-19T04:00:11.195Z,13.98
2022-12-19T04:02:49.963Z,14.20
2022-12-19T04:05:23.358Z,14.52
2022-12-19T04:07:53.566Z,13.82
2022-12-19T04:10:24.173Z,16.13
2022-12-19T04:12:59.225Z,14.88
2022-12-19T04:15:49.512Z,16.77
2022-12-19T04:18:18.805Z,14.35
2022-12-19T04:20:52.755Z,15.80
2022-12-19T04:23:27.255Z,14.30
2022-12-19T04:26:00.433Z,13.45
2022-12-19T04:28:34.773Z,14.15
2022-12-19T04:31:02.675Z,15.18
2022-12-19T04:33:29.535Z,15.50
2022-12-19T04:35:56.255Z,15.05
2022-12-19T04:38:23.094Z,15.75
2022-12-19T04:40:49.775Z,13.65
2022-12-19T04:43:16.455Z,14.40
2022-12-19T04:45:43.221Z,14.68
2022-12-19T04:48:10.117Z,14.82
2022-12-19T04:50:36.830Z,15.65
2022-12-19T04:53:03.629Z,16.45
2022-12-19T04:55:30.272Z,14.90
2022-12-19T04:57:56.991Z,15.32
2022-12-19T05:00:23.657Z,16.27
2022-12-19T05:02:50.609Z,15.15
2022-12-19T05:05:18.893Z,13.93
2022-12-19T05:07:47.044Z,14.63
2022-12-19T05:10:13.923Z,15.68
2022-12-19T05:12:40.584Z,15.57
2022-12-19T05:15:07.779Z,15.02
2022-12-19T05:17:34.471Z,17.02
2022-12-19T05:20:01.187Z,15.98
2022-12-19T05:22:28.010Z,15.45
2022-12-19T05:24:54.732Z,16.75
2022-12-19T05:27:21.513Z,16.83
2022-12-19T05:29:48.187Z,16.17
2022-12-19T05:32:14.823Z,15.85
2022-12-19T05:34:41.509Z,16.73
2022-12-19T05:37:08.179Z,15.88
2022-12-19T05:39:35.160Z,17.70
2022-12-19T05:42:01.825Z,16.65
2022-12-19T05:44:28.511Z,16.75
2022-12-19T05:46:55.171Z,16.40
2022-12-19T05:49:21.829Z,16.77
2022-12-19T05:51:49.075Z,17.58
2022-12-19T05:54:15.879Z,18.92
2022-12-19T05:56:42.546Z,19.20
2022-12-19T05:59:09.266Z,14.45
2022-12-19T06:01:36.006Z,15.10
2022-12-19T06:04:04.055Z,14.45
2022-12-19T06:06:30.689Z,14.73
2022-12-19T06:08:58.950Z,14.90
2022-12-19T06:11:27.120Z,16.98
2022-12-19T06:13:54.062Z,16.02
2022-12-19T06:16:22.605Z,17.20
2022-12-19T06:18:49.506Z,14.68
2022-12-19T06:21:18.527Z,17.13
2022-12-19T06:23:45.663Z,15.50
2022-12-19T06:26:19.121Z,15.25
2022-12-19T06:28:47.498Z,13.93
2022-12-19T06:31:15.188Z,15.63
2022-12-19T06:33:42.088Z,15.05
2022-12-19T06:36:16.408Z,14.23
2022-12-19T06:38:43.080Z,15.05
2022-12-19T06:41:29.695Z,14.10
2022-12-19T06:44:00.448Z,17.52
2022-12-19T06:46:27.469Z,15.70
2022-12-19T06:48:54.376Z,15.15
2022-12-19T06:51:21.207Z,14.45
2022-12-19T06:53:48.262Z,15.20
2022-12-19T06:56:16.188Z,14.82
2022-12-19T06:58:43.222Z,15.50
2022-12-19T07:01:21.158Z,14.20
2022-12-19T07:03:49.273Z,14.07
2022-12-19T07:06:16.199Z,14.68
2022-12-19T07:08:43.149Z,14.93
2022-12-19T07:11:10.645Z,14.30
2022-12-19T07:13:37.343Z,15.20
2022-12-19T07:16:05.535Z,15.85
2022-12-19T07:18:36.068Z,14.48
2022-12-19T07:21:03.517Z,16.20
2022-12-19T07:23:30.413Z,16.33
2022-12-19T07:25:57.977Z,20.73
2022-12-19T07:28:24.984Z,19.95
2022-12-19T07:30:51.625Z,19.33
2022-12-19T07:33:21.661Z,20.48
2022-12-19T07:35:48.695Z,18.48
2022-12-19T07:38:15.544Z,17.45
2022-12-19T07:40:42.198Z,17.95
2022-12-19T07:43:08.895Z,16.58
2022-12-19T07:45:38.451Z,17.70
2022-12-19T07:48:07.209Z,24.30
2022-12-19T07:50:34.220Z,24.35
2022-12-19T07:53:01.171Z,21.60
2022-12-19T07:55:28.256Z,21.67
2022-12-19T07:57:55.687Z,20.77
2022-12-19T08:00:23.186Z,19.70
2022-12-19T08:02:49.972Z,20.40
2022-12-19T08:05:17.009Z,19.33
2022-12-19T08:07:43.676Z,18.90
2022-12-19T08:10:12.566Z,20.30
2022-12-19T08:12:39.601Z,18.25
2022-12-19T08:15:07.459Z,16.40
2022-12-19T08:17:35.312Z,18.17
2022-12-19T08:20:02.043Z,21.13
2022-12-19T08:22:31.910Z,19.52
2022-12-19T08:24:58.593Z,19.30
2022-12-19T08:27:26.061Z,19.33
2022-12-19T08:29:53.134Z,17.42
2022-12-19T08:32:21.428Z,16.45
2022-12-19T08:34:49.023Z,15.95
2022-12-19T08:37:15.732Z,18.75
2022-12-19T08:39:42.419Z,16.75
2022-12-19T08:42:09.121Z,18.88
2022-12-19T08:44:35.803Z,17.38
2022-12-19T08:47:02.760Z,16.33
2022-12-19T08:49:29.647Z,17.98
2022-12-19T08:51:56.345Z,18.60
2022-12-19T08:54:23.119Z,19.35
2022-12-19T08:56:50.038Z,17.77
2022-12-19T08:59:23.976Z,18.38
2022-12-19T09:01:57.580Z,16.85
2022-12-19T09:05:57.510Z,17.33
2022-12-19T09:07:11.089Z,16.67
2022-12-19T09:09:37.813Z,17.92
2022-12-19T09:12:04.506Z,18.45
2022-12-19T09:14:35.070Z,18.80
2022-12-19T09:17:01.813Z,17.35
2022-12-19T09:19:31.773Z,19.33
2022-12-19T09:21:58.442Z,18.42
2022-12-19T09:24:25.214Z,19.17
2022-12-19T09:26:51.956Z,19.58
2022-12-19T09:29:20.328Z,21.17
2022-12-19T09:31:56.519Z,22.05
2022-12-19T09:34:36.770Z,19.50
2022-12-19T09:37:15.886Z,21.20
2022-12-19T09:39:48.202Z,17.95
2022-12-19T09:42:17.964Z,19.30
2022-12-19T09:45:05.638Z,16.45
2022-12-19T09:47:35.825Z,16.80
2022-12-19T09:50:03.086Z,17.73
2022-12-19T09:52:47.604Z,17.00
2022-12-19T09:55:23.976Z,17.25
2022-12-19T09:57:53.848Z,18.50
2022-12-19T10:00:22.469Z,17.60
2022-12-19T10:03:02.418Z,18.83
2022-12-19T10:07:09.439Z,18.92
2022-12-19T10:08:45.680Z,19.92
2022-12-19T10:12:44.384Z,18.75
2022-12-19T10:14:47.176Z,17.63
2022-12-19T10:17:34.581Z,18.55
2022-12-19T10:20:23.658Z,19.60
2022-12-19T10:23:11.649Z,18.27
2022-12-19T10:26:13.716Z,20.58
2022-12-19T10:29:12.271Z,19.00
2022-12-19T10:32:11.121Z,18.98
2022-12-19T10:34:41.814Z,18.88
2022-12-19T10:37:32.744Z,18.58
2022-12-19T10:40:15.991Z,17.42
2022-12-19T10:42:56.937Z,17.48
2022-12-19T10:45:30.927Z,18.60
2022-12-19T10:47:58.451Z,20.00
2022-12-19T10:50:27.715Z,19.50
2022-12-19T10:52:56.833Z,19.45
2022-12-19T10:55:47.668Z,20.30
2022-12-19T10:58:21.753Z,21.35
2022-12-19T11:01:05.851Z,19.95
2022-12-19T11:03:34.537Z,17.70
2022-12-19T11:06:03.235Z,18.42
2022-12-19T11:08:38.921Z,19.23
2022-12-19T11:14:37.832Z,16.90
2022-12-19T11:17:44.993Z,19.15
2022-12-19T11:22:07.356Z,19.67
2022-12-19T11:29:30.477Z,19.05
2022-12-19T11:29:33.695Z,19.70
2022-12-19T11:29:35.025Z,19.38
2022-12-19T11:30:44.318Z,19.17
2022-12-19T11:33:28.121Z,19.25
2022-12-19T11:35:58.524Z,21.25
2022-12-19T11:38:52.974Z,18.70
2022-12-19T11:41:28.751Z,19.02
2022-12-19T11:44:02.193Z,17.88
2022-12-19T11:46:38.687Z,18.10
2022-12-19T11:49:23.542Z,18.95
2022-12-19T11:52:02.931Z,19.20
2022-12-19T11:55:06.382Z,17.88
2022-12-19T11:57:33.298Z,18.15
2022-12-19T12:00:05.003Z,18.08
2022-12-19T12:02:50.919Z,18.70
2022-12-19T12:05:35.678Z,19.70
2022-12-19T12:09:41.866Z,16.15
2022-12-19T12:17:19.506Z,19.25
2022-12-19T12:30:14.651Z,18.48
2022-12-19T12:31:21.173Z,18.48
2022-12-19T12:31:46.811Z,23.80
2022-12-19T12:31:50.062Z,21.17
2022-12-19T12:31:50.447Z,20.88
2022-12-19T12:35:48.783Z,21.58
2022-12-19T12:38:51.440Z,18.05
2022-12-19T12:41:47.394Z,17.17
2022-12-19T12:44:15.290Z,19.83
2022-12-19T12:47:06.821Z,19.98
2022-12-19T12:50:00.469Z,19.40
2022-12-19T12:52:36.085Z,19.63
2022-12-19T12:55:06.174Z,18.75
2022-12-19T12:57:37.067Z,18.83
2022-12-19T13:00:16.548Z,20.88
2022-12-19T13:02:47.664Z,20.88
2022-12-19T13:05:35.891Z,20.33
2022-12-19T13:08:22.973Z,22.00
2022-12-19T13:10:55.698Z,23.58
2022-12-19T13:13:56.297Z,22.20
2022-12-19T13:16:45.480Z,22.83
2022-12-19T13:19:27.939Z,24.00
2022-12-19T13:22:04.983Z,23.15
2022-12-19T13:24:39.227Z,24.33
2022-12-19T13:27:21.238Z,20.67
2022-12-19T13:30:07.312Z,21.05
2022-12-19T13:32:54.125Z,21.67
2022-12-19T13:36:24.464Z,23.52
2022-12-19T13:39:55.643Z,21.65
2022-12-19T13:41:48.185Z,20.38
2022-12-19T13:44:19.707Z,19.55
2022-12-19T13:46:46.867Z,20.13
2022-12-19T13:49:19.933Z,20.48
2022-12-19T13:51:55.150Z,19.50
2022-12-19T13:54:34.793Z,20.77
2022-12-19T13:57:09.272Z,17.77
2022-12-19T13:59:39.925Z,19.58
2022-12-19T14:02:25.738Z,19.67
2022-12-19T14:04:52.629Z,20.05
2022-12-19T14:07:24.940Z,19.15
2022-12-19T14:11:33.720Z,20.13
2022-12-19T14:13:52.961Z,22.65
2022-12-19T14:15:55.229Z,25.20
2022-12-19T14:18:42.935Z,21.80
2022-12-19T14:22:03.706Z,21.25
2022-12-19T14:24:10.274Z,18.05
2022-12-19T14:28:26.678Z,18.85
2022-12-19T14:29:45.451Z,19.67
2022-12-19T14:33:45.484Z,18.42
2022-12-19T14:36:07.809Z,19.45
2022-12-19T14:39:21.050Z,20.40
2022-12-19T14:41:07.891Z,22.30
2022-12-19T14:43:57.772Z,20.95
2022-12-19T14:54:08.027Z,22.70
2022-12-19T14:54:17.437Z,20.08
2022-12-19T14:54:44.435Z,20.83
2022-12-19T14:56:16.169Z,21.30
2022-12-19T14:58:52.656Z,21.67
2022-12-19T15:01:33.158Z,20.85
2022-12-19T15:04:51.788Z,18.80
2022-12-19T15:07:07.550Z,19.33
2022-12-19T15:11:05.089Z,21.05
2022-12-19T15:14:46.547Z,20.58
2022-12-19T15:16:01.612Z,20.65
2022-12-19T15:18:42.671Z,22.23
2022-12-19T15:21:14.610Z,21.33
2022-12-19T15:23:44.310Z,20.48
2022-12-19T15:26:35.343Z,20.08
2022-12-19T15:29:06.959Z,22.00
2022-12-19T15:31:42.527Z,20.93
2022-12-19T15:34:34.201Z,20.13
2022-12-19T15:39:30.311Z,16.55
2022-12-19T15:42:00.585Z,16.95
2022-12-19T15:44:34.013Z,17.02
2022-12-19T15:47:02.443Z,18.13
2022-12-19T15:49:29.240Z,21.15
2022-12-19T15:51:55.945Z,17.80
2022-12-19T15:54:48.012Z,19.27
2022-12-19T15:57:19.809Z,20.48
2022-12-19T15:59:46.736Z,19.17
2022-12-19T16:02:27.846Z,20.13
2022-12-19T16:05:03.498Z,22.52
2022-12-19T16:07:30.873Z,20.15
2022-12-19T16:09:57.625Z,24.75
2022-12-19T16:12:38.715Z,23.15
2022-12-19T16:15:13.578Z,24.17
2022-12-19T16:17:40.407Z,23.33
2022-12-19T16:20:17.101Z,27.95
2022-12-19T16:22:44.069Z,22.73
2022-12-19T16:25:12.831Z,20.27
2022-12-19T16:27:40.236Z,24.60
2022-12-19T16:30:20.969Z,25.98
2022-12-19T16:32:49.027Z,22.92
2022-12-19T16:35:28.978Z,23.15
2022-12-19T16:38:06.017Z,22.38
2022-12-19T16:40:33.164Z,21.95
2022-12-19T16:43:13.899Z,23.35
2022-12-19T16:45:40.699Z,20.50
2022-12-19T16:48:22.544Z,21.08
2022-12-19T16:50:50.047Z,19.73
2022-12-19T16:53:17.390Z,21.73
2022-12-19T16:55:45.818Z,25.17
2022-12-19T16:58:20.291Z,23.80
2022-12-19T17:00:48.116Z,24.80
2022-12-19T17:03:37.269Z,24.73
2022-12-19T17:06:04.437Z,22.42
2022-12-19T17:08:32.453Z,22.73
2022-12-19T17:10:59.424Z,25.73
2022-12-19T17:13:26.720Z,23.70
2022-12-19T17:15:57.167Z,23.33
2022-12-19T17:18:34.723Z,22.48
2022-12-19T17:21:01.774Z,18.90
2022-12-19T17:23:30.522Z,18.73
2022-12-19T17:25:57.962Z,19.33
2022-12-19T17:28:24.676Z,19.58
2022-12-19T17:30:54.529Z,19.90
2022-12-19T17:33:23.799Z,18.00
2022-12-19T17:35:50.557Z,19.98
2022-12-19T17:38:17.823Z,19.95
2022-12-19T17:40:45.435Z,19.27
2022-12-19T17:43:12.879Z,20.45
2022-12-19T17:45:40.522Z,19.10
2022-12-19T17:48:19.293Z,18.98
2022-12-19T17:50:46.013Z,21.98
2022-12-19T17:53:14.445Z,20.48
2022-12-19T17:55:41.535Z,22.17
2022-12-19T17:58:12.432Z,19.05
2022-12-19T18:00:40.095Z,19.90
2022-12-19T18:03:18.613Z,18.25
2022-12-19T18:05:45.504Z,19.58
2022-12-19T18:08:45.175Z,19.23
2022-12-19T18:11:23.677Z,19.27
2022-12-19T18:13:51.688Z,19.17
2022-12-19T18:16:24.684Z,18.52
2022-12-19T18:18:51.572Z,20.65
2022-12-19T18:21:21.246Z,19.65
2022-12-19T18:23:48.874Z,22.17
2022-12-19T18:26:15.592Z,18.02
2022-12-19T18:28:42.555Z,18.77
2022-12-19T18:31:25.565Z,18.60
2022-12-19T18:33:54.475Z,18.38
2022-12-19T18:36:24.023Z,22.80
2022-12-19T18:38:51.688Z,19.50
2022-12-19T18:41:19.857Z,18.60
2022-12-19T18:43:47.017Z,17.83
2022-12-19T18:46:16.340Z,16.15
2022-12-19T18:48:45.017Z,16.52
2022-12-19T18:51:17.233Z,17.10
2022-12-19T18:53:45.334Z,18.15
2022-12-19T18:56:12.060Z,18.30
2022-12-19T18:58:38.818Z,19.17
2022-12-19T19:01:11.394Z,17.90
2022-12-19T19:03:40.956Z,18.45
2022-12-19T19:06:19.858Z,18.05
2022-12-19T19:08:46.783Z,16.42
2022-12-19T19:11:26.055Z,16.55
2022-12-19T19:13:53.502Z,16.20
2022-12-19T19:16:25.358Z,16.23
2022-12-19T19:18:54.270Z,15.80
2022-12-19T19:21:24.662Z,16.33
2022-12-19T19:24:15.109Z,15.90
2022-12-19T19:26:41.765Z,16.17
2022-12-19T19:29:09.791Z,16.40
2022-12-19T19:31:39.425Z,18.02
2022-12-19T19:34:13.444Z,16.33
2022-12-19T19:36:44.737Z,16.85
2022-12-19T19:39:11.777Z,17.27
2022-12-19T19:41:38.389Z,17.42
2022-12-19T19:44:05.094Z,17.25
2022-12-19T19:46:32.582Z,15.18
2022-12-19T19:48:59.459Z,17.65
2022-12-19T19:51:28.832Z,16.45
2022-12-19T19:53:56.150Z,17.33
2022-12-19T19:56:22.852Z,19.85
2022-12-19T19:58:49.633Z,19.13
2022-12-19T20:01:16.464Z,17.40
2022-12-19T20:03:44.874Z,18.20
2022-12-19T20:06:12.545Z,17.40
2022-12-19T20:08:40.647Z,16.80
2022-12-19T20:11:10.695Z,16.38
2022-12-19T20:13:38.438Z,17.83
2022-12-19T20:16:11.339Z,16.48
2022-12-19T20:18:40.060Z,17.88
2022-12-19T20:21:13.493Z,16.90
2022-12-19T20:23:42.853Z,16.70
2022-12-19T20:26:11.472Z,15.90
2022-12-19T20:28:45.622Z,16.08
2022-12-19T20:31:14.934Z,16.23
2022-12-19T20:33:41.775Z,15.13
2022-12-19T20:36:10.721Z,14.88
2022-12-19T20:38:38.249Z,15.43
2022-12-19T20:41:05.246Z,16.00
2022-12-19T20:43:32.180Z,15.48
2022-12-19T20:46:07.214Z,15.10
2022-12-19T20:48:34.141Z,14.90
2022-12-19T20:51:02.745Z,16.52
2022-12-19T20:53:29.377Z,15.75
2022-12-19T20:55:58.914Z,16.77
2022-12-19T20:58:27.618Z,17.08
2022-12-19T21:00:56.185Z,15.48
2022-12-19T21:03:29.174Z,16.63
2022-12-19T21:05:57.097Z,15.65
2022-12-19T21:08:25.448Z,14.82
2022-12-19T21:10:53.094Z,14.68
2022-12-19T21:13:21.931Z,15.38
2022-12-19T21:16:09.792Z,13.48
2022-12-19T21:18:38.116Z,13.80
2022-12-19T21:21:06.412Z,15.38
2022-12-19T21:23:33.275Z,14.85
2022-12-19T21:26:01.781Z,14.20
2022-12-19T21:28:29.084Z,15.68
2022-12-19T21:31:12.112Z,14.32
2022-12-19T21:33:38.787Z,14.10
2022-12-19T21:36:10.721Z,15.25
2022-12-19T21:38:38.037Z,14.95
2022-12-19T21:41:06.712Z,14.95
2022-12-19T21:43:34.864Z,14.48
2022-12-19T21:46:06.925Z,15.07
2022-12-19T21:48:38.576Z,14.60
2022-12-19T21:51:06.757Z,14.15
2022-12-19T21:53:34.144Z,16.25
2022-12-19T21:56:03.841Z,15.02
2022-12-19T21:58:30.933Z,15.48
2022-12-19T22:01:08.297Z,13.95
2022-12-19T22:03:36.031Z,15.45
2022-12-19T22:06:03.162Z,15.52
2022-12-19T22:08:30.038Z,14.88
2022-12-19T22:10:56.792Z,15.73
2022-12-19T22:13:23.615Z,15.18
2022-12-19T22:15:52.584Z,14.82
2022-12-19T22:18:19.714Z,15.68
2022-12-19T22:20:46.600Z,15.93
2022-12-19T22:23:13.786Z,16.27
2022-12-19T22:25:41.246Z,15.93
2022-12-19T22:28:08.261Z,14.88
2022-12-19T22:30:35.838Z,14.05
2022-12-19T22:33:04.565Z,14.48
2022-12-19T22:35:33.888Z,13.88
2022-12-19T22:38:00.557Z,13.57
2022-12-19T22:40:27.450Z,14.45
2022-12-19T22:42:54.136Z,13.80
2022-12-19T22:45:20.838Z,14.32
2022-12-19T22:47:47.463Z,14.95
2022-12-19T22:50:14.402Z,12.80
2022-12-19T22:52:41.154Z,15.00
2022-12-19T22:55:08.501Z,15.02
2022-12-19T22:57:35.171Z,14.15
2022-12-19T23:00:01.982Z,16.45
2022-12-19T23:02:28.778Z,16.55
2022-12-19T23:04:55.618Z,18.67
2022-12-19T23:07:22.499Z,18.45
2022-12-19T23:09:49.291Z,18.67
2022-12-19T23:12:15.933Z,21.50
2022-12-19T23:14:42.659Z,18.73
2022-12-19T23:17:09.416Z,19.38
2022-12-19T23:19:36.265Z,18.98
2022-12-19T23:22:03.316Z,20.05
2022-12-19T23:24:30.436Z,18.40
2022-12-19T23:26:57.190Z,19.67
2022-12-19T23:29:24.002Z,19.55
2022-12-19T23:31:50.703Z,19.13
2022-12-19T23:34:17.563Z,16.73
2022-12-19T23:37:10.096Z,17.10
2022-12-19T23:39:31.727Z,17.02
2022-12-19T23:41:58.581Z,16.67
2022-12-19T23:44:25.507Z,16.20
2022-12-19T23:46:52.164Z,16.08
2022-12-19T23:49:18.829Z,15.90
2022-12-19T23:51:45.571Z,15.02
2022-12-19T23:54:12.435Z,15.85
2022-12-19T23:56:39.512Z,15.85
2022-12-19T23:59:06.401Z,14.63
